sensor_id;sensor_type;location;lat;lon;timestamp;pressure;altitude;pressure_sealevel;temperature;humidity
61324;BME280;47203;48.428;11.974;2022-07-21T00:00:43;97045.22;;;28.10;34.05
61324;BME280;47203;48.428;11.974;2022-07-21T00:02:49;97051.00;;;28.08;34.15
61324;BME280;47203;48.428;11.974;2022-07-21T00:04:57;97047.47;;;28.04;34.57
61324;BME280;47203;48.428;11.974;2022-07-21T00:07:02;97055.97;;;28.06;34.45
61324;BME280;47203;48.428;11.974;2022-07-21T00:09:07;97030.44;;;28.03;34.46
61324;BME280;47203;48.428;11.974;2022-07-21T00:11:13;97027.31;;;27.98;34.49
61324;BME280;47203;48.428;11.974;2022-07-21T00:13:18;97015.66;;;27.94;34.57
61324;BME280;47203;48.428;11.974;2022-07-21T00:15:26;97027.94;;;27.87;34.40
61324;BME280;47203;48.428;11.974;2022-07-21T00:17:32;97039.91;;;27.86;34.52
61324;BME280;47203;48.428;11.974;2022-07-21T00:19:38;97057.66;;;27.84;34.71
61324;BME280;47203;48.428;11.974;2022-07-21T00:21:46;97065.75;;;27.80;34.51
61324;BME280;47203;48.428;11.974;2022-07-21T00:23:51;97063.03;;;27.80;34.96
61324;BME280;47203;48.428;11.974;2022-07-21T00:25:57;97053.34;;;27.79;34.67
61324;BME280;47203;48.428;11.974;2022-07-21T00:28:04;97059.91;;;27.78;34.93
61324;BME280;47203;48.428;11.974;2022-07-21T00:30:11;97069.16;;;27.77;35.11
61324;BME280;47203;48.428;11.974;2022-07-21T00:32:17;97064.91;;;27.76;34.82
61324;BME280;47203;48.428;11.974;2022-07-21T00:34:22;97053.28;;;27.72;34.85
61324;BME280;47203;48.428;11.974;2022-07-21T00:36:27;97040.06;;;27.67;35.34
61324;BME280;47203;48.428;11.974;2022-07-21T00:38:35;97041.56;;;27.61;35.28
61324;BME280;47203;48.428;11.974;2022-07-21T00:40:47;97040.00;;;27.60;35.39
61324;BME280;47203;48.428;11.974;2022-07-21T00:42:52;97036.88;;;27.58;35.30
61324;BME280;47203;48.428;11.974;2022-07-21T00:44:59;97028.75;;;27.54;35.83
61324;BME280;47203;48.428;11.974;2022-07-21T00:47:05;97024.41;;;27.49;35.64
61324;BME280;47203;48.428;11.974;2022-07-21T00:49:10;97015.50;;;27.45;35.52
61324;BME280;47203;48.428;11.974;2022-07-21T00:51:15;97023.19;;;27.43;35.64
61324;BME280;47203;48.428;11.974;2022-07-21T00:53:21;97029.72;;;27.42;35.99
61324;BME280;47203;48.428;11.974;2022-07-21T00:55:29;97027.38;;;27.37;36.25
61324;BME280;47203;48.428;11.974;2022-07-21T00:57:35;97028.94;;;27.38;36.08
61324;BME280;47203;48.428;11.974;2022-07-21T00:59:41;97025.44;;;27.38;36.04
61324;BME280;47203;48.428;11.974;2022-07-21T01:01:46;97023.09;;;27.36;35.83
61324;BME280;47203;48.428;11.974;2022-07-21T01:03:52;97026.97;;;27.35;35.92
61324;BME280;47203;48.428;11.974;2022-07-21T01:05:58;97030.34;;;27.32;36.12
61324;BME280;47203;48.428;11.974;2022-07-21T01:08:06;97032.66;;;27.30;36.39
61324;BME280;47203;48.428;11.974;2022-07-21T01:10:14;97022.22;;;27.28;36.09
61324;BME280;47203;48.428;11.974;2022-07-21T01:12:22;97019.44;;;27.25;36.21
61324;BME280;47203;48.428;11.974;2022-07-21T01:14:28;97025.22;;;27.23;36.43
61324;BME280;47203;48.428;11.974;2022-07-21T01:16:34;97023.22;;;27.16;36.48
61324;BME280;47203;48.428;11.974;2022-07-21T01:18:39;97022.75;;;27.11;36.71
61324;BME280;47203;48.428;11.974;2022-07-21T01:20:53;97021.44;;;26.97;37.18
61324;BME280;47203;48.428;11.974;2022-07-21T01:23:01;97015.50;;;26.88;37.62
61324;BME280;47203;48.428;11.974;2022-07-21T01:25:08;97018.16;;;26.85;37.37
61324;BME280;47203;48.428;11.974;2022-07-21T01:27:14;97016.59;;;26.83;37.34
61324;BME280;47203;48.428;11.974;2022-07-21T01:29:20;97051.19;;;26.74;37.92
61324;BME280;47203;48.428;11.974;2022-07-21T01:31:26;97059.84;;;26.64;37.92
61324;BME280;47203;48.428;11.974;2022-07-21T01:33:31;97056.56;;;26.51;38.14
61324;BME280;47203;48.428;11.974;2022-07-21T01:35:37;97069.88;;;26.40;38.10
61324;BME280;47203;48.428;11.974;2022-07-21T01:37:45;97064.38;;;26.33;38.46
61324;BME280;47203;48.428;11.974;2022-07-21T01:39:54;97063.16;;;26.30;38.47
61324;BME280;47203;48.428;11.974;2022-07-21T01:42:12;97058.53;;;26.31;38.59
61324;BME280;47203;48.428;11.974;2022-07-21T01:44:15;97071.19;;;26.27;38.54
61324;BME280;47203;48.428;11.974;2022-07-21T01:46:21;97074.59;;;26.24;39.07
61324;BME280;47203;48.428;11.974;2022-07-21T01:48:26;97079.56;;;26.22;39.09
61324;BME280;47203;48.428;11.974;2022-07-21T01:50:31;97070.34;;;26.23;39.10
61324;BME280;47203;48.428;11.974;2022-07-21T01:52:37;97073.06;;;26.23;39.01
61324;BME280;47203;48.428;11.974;2022-07-21T01:54:42;97076.53;;;26.23;39.34
61324;BME280;47203;48.428;11.974;2022-07-21T01:56:51;97077.25;;;26.20;39.65
61324;BME280;47203;48.428;11.974;2022-07-21T01:58:57;97072.25;;;26.22;39.76
61324;BME280;47203;48.428;11.974;2022-07-21T02:01:03;97074.19;;;26.22;39.44
61324;BME280;47203;48.428;11.974;2022-07-21T02:03:08;97066.44;;;26.20;39.80
61324;BME280;47203;48.428;11.974;2022-07-21T02:05:14;97070.28;;;26.19;39.80
61324;BME280;47203;48.428;11.974;2022-07-21T02:07:19;97070.28;;;26.19;39.69
61324;BME280;47203;48.428;11.974;2022-07-21T02:09:24;97066.81;;;26.19;39.95
61324;BME280;47203;48.428;11.974;2022-07-21T02:11:30;97063.34;;;26.18;40.10
61324;BME280;47203;48.428;11.974;2022-07-21T02:13:38;97067.56;;;26.19;40.12
61324;BME280;47203;48.428;11.974;2022-07-21T02:15:43;97072.63;;;26.21;39.88
61324;BME280;47203;48.428;11.974;2022-07-21T02:17:49;97067.16;;;26.17;39.96
61324;BME280;47203;48.428;11.974;2022-07-21T02:19:54;97069.06;;;26.17;40.31
61324;BME280;47203;48.428;11.974;2022-07-21T02:21:59;97066.72;;;26.15;40.49
61324;BME280;47203;48.428;11.974;2022-07-21T02:24:06;97063.63;;;26.13;40.63
61324;BME280;47203;48.428;11.974;2022-07-21T02:26:11;97071.31;;;26.11;41.16
61324;BME280;47203;48.428;11.974;2022-07-21T02:28:16;97067.31;;;26.05;40.98
61324;BME280;47203;48.428;11.974;2022-07-21T02:30:25;97057.94;;;25.99;40.62
61324;BME280;47203;48.428;11.974;2022-07-21T02:32:30;97064.56;;;26.01;40.78
61324;BME280;47203;48.428;11.974;2022-07-21T02:34:35;97074.22;;;26.02;40.85
61324;BME280;47203;48.428;11.974;2022-07-21T02:36:41;97083.44;;;26.01;40.98
61324;BME280;47203;48.428;11.974;2022-07-21T02:38:46;97085.25;;;25.97;41.12
61324;BME280;47203;48.428;11.974;2022-07-21T02:40:53;97084.75;;;25.91;41.09
61324;BME280;47203;48.428;11.974;2022-07-21T02:42:59;97097.03;;;25.89;41.47
61324;BME280;47203;48.428;11.974;2022-07-21T02:45:06;97090.47;;;25.86;41.40
61324;BME280;47203;48.428;11.974;2022-07-21T02:47:15;97091.09;;;25.79;41.74
61324;BME280;47203;48.428;11.974;2022-07-21T02:49:20;97092.56;;;25.77;42.00
61324;BME280;47203;48.428;11.974;2022-07-21T02:51:26;97095.22;;;25.73;41.69
61324;BME280;47203;48.428;11.974;2022-07-21T02:53:31;97092.06;;;25.71;41.58
61324;BME280;47203;48.428;11.974;2022-07-21T02:55:38;97094.75;;;25.71;41.97
61324;BME280;47203;48.428;11.974;2022-07-21T02:57:44;97097.09;;;25.73;41.79
61324;BME280;47203;48.428;11.974;2022-07-21T02:59:49;97095.97;;;25.74;42.00
61324;BME280;47203;48.428;11.974;2022-07-21T03:01:54;97091.38;;;25.74;42.35
61324;BME280;47203;48.428;11.974;2022-07-21T03:04:02;97098.69;;;25.74;42.63
61324;BME280;47203;48.428;11.974;2022-07-21T03:06:08;97101.47;;;25.77;42.00
61324;BME280;47203;48.428;11.974;2022-07-21T03:08:13;97108.75;;;25.77;42.19
61324;BME280;47203;48.428;11.974;2022-07-21T03:10:19;97109.91;;;25.76;42.37
61324;BME280;47203;48.428;11.974;2022-07-21T03:12:24;97099.88;;;25.76;42.41
61324;BME280;47203;48.428;11.974;2022-07-21T03:14:29;97101.38;;;25.74;42.47
61324;BME280;47203;48.428;11.974;2022-07-21T03:16:34;97111.03;;;25.75;42.78
61324;BME280;47203;48.428;11.974;2022-07-21T03:18:40;97104.88;;;25.74;42.91
61324;BME280;47203;48.428;11.974;2022-07-21T03:20:48;97097.91;;;25.73;42.96
61324;BME280;47203;48.428;11.974;2022-07-21T03:22:53;97097.53;;;25.75;43.04
61324;BME280;47203;48.428;11.974;2022-07-21T03:24:59;97103.22;;;25.70;42.67
61324;BME280;47203;48.428;11.974;2022-07-21T03:27:05;97102.03;;;25.67;43.19
61324;BME280;47203;48.428;11.974;2022-07-21T03:29:10;97096.13;;;25.61;43.40
61324;BME280;47203;48.428;11.974;2022-07-21T03:31:15;97096.13;;;25.61;43.51
61324;BME280;47203;48.428;11.974;2022-07-21T03:33:20;97090.75;;;25.61;43.08
61324;BME280;47203;48.428;11.974;2022-07-21T03:35:26;97091.50;;;25.62;43.46
61324;BME280;47203;48.428;11.974;2022-07-21T03:37:40;97093.28;;;25.54;43.50
61324;BME280;47203;48.428;11.974;2022-07-21T03:39:49;97093.69;;;25.56;43.62
61324;BME280;47203;48.428;11.974;2022-07-21T03:41:54;97089.53;;;25.59;43.57
61324;BME280;47203;48.428;11.974;2022-07-21T03:43:59;97091.09;;;25.60;43.67
61324;BME280;47203;48.428;11.974;2022-07-21T03:46:05;97088.75;;;25.58;43.43
61324;BME280;47203;48.428;11.974;2022-07-21T03:48:11;97090.66;;;25.58;43.86
61324;BME280;47203;48.428;11.974;2022-07-21T03:50:17;97093.00;;;25.59;43.72
61324;BME280;47203;48.428;11.974;2022-07-21T03:52:22;97081.78;;;25.57;43.34
61324;BME280;47203;48.428;11.974;2022-07-21T03:54:30;97094.06;;;25.55;43.59
61324;BME280;47203;48.428;11.974;2022-07-21T03:56:35;97100.16;;;25.52;43.92
61324;BME280;47203;48.428;11.974;2022-07-21T03:58:41;97098.16;;;25.49;44.11
61324;BME280;47203;48.428;11.974;2022-07-21T04:00:46;97107.38;;;25.48;44.29
61324;BME280;47203;48.428;11.974;2022-07-21T04:02:52;97108.94;;;25.49;44.29
61324;BME280;47203;48.428;11.974;2022-07-21T04:04:58;97110.88;;;25.48;44.50
61324;BME280;47203;48.428;11.974;2022-07-21T04:07:04;97111.22;;;25.47;44.50
61324;BME280;47203;48.428;11.974;2022-07-21T04:09:10;97122.31;;;25.45;44.49
61324;BME280;47203;48.428;11.974;2022-07-21T04:11:18;97115.75;;;25.42;44.70
61324;BME280;47203;48.428;11.974;2022-07-21T04:13:23;97108.44;;;25.43;44.76
61324;BME280;47203;48.428;11.974;2022-07-21T04:15:29;97112.69;;;25.44;44.76
61324;BME280;47203;48.428;11.974;2022-07-21T04:17:37;97113.91;;;25.47;44.81
61324;BME280;47203;48.428;11.974;2022-07-21T04:19:43;97117.03;;;25.49;44.49
61324;BME280;47203;48.428;11.974;2022-07-21T04:21:48;97117.88;;;25.53;44.76
61324;BME280;47203;48.428;11.974;2022-07-21T04:23:54;97119.44;;;25.54;44.59
61324;BME280;47203;48.428;11.974;2022-07-21T04:25:59;97127.97;;;25.56;44.54
61324;BME280;47203;48.428;11.974;2022-07-21T04:28:07;97121.00;;;25.55;44.71
61324;BME280;47203;48.428;11.974;2022-07-21T04:30:16;97121.09;;;25.58;44.88
61324;BME280;47203;48.428;11.974;2022-07-21T04:32:22;97124.25;;;25.64;44.84
61324;BME280;47203;48.428;11.974;2022-07-21T04:34:28;97129.03;;;25.71;44.70
61324;BME280;47203;48.428;11.974;2022-07-21T04:36:34;97126.06;;;25.76;44.90
61324;BME280;47203;48.428;11.974;2022-07-21T04:38:39;97126.56;;;25.82;44.57
61324;BME280;47203;48.428;11.974;2022-07-21T04:40:44;97140.88;;;25.86;44.44
61324;BME280;47203;48.428;11.974;2022-07-21T04:42:50;97150.97;;;25.89;44.88
61324;BME280;47203;48.428;11.974;2022-07-21T04:44:58;97152.03;;;25.84;44.72
61324;BME280;47203;48.428;11.974;2022-07-21T04:47:03;97164.75;;;25.84;44.78
61324;BME280;47203;48.428;11.974;2022-07-21T04:49:08;97171.34;;;25.86;44.75
61324;BME280;47203;48.428;11.974;2022-07-21T04:51:14;97167.50;;;25.87;44.95
61324;BME280;47203;48.428;11.974;2022-07-21T04:53:19;97171.75;;;25.88;44.92
61324;BME280;47203;48.428;11.974;2022-07-21T04:55:25;97158.28;;;25.88;45.06
61324;BME280;47203;48.428;11.974;2022-07-21T04:57:30;97166.38;;;25.88;45.22
61324;BME280;47203;48.428;11.974;2022-07-21T04:59:36;97171.06;;;25.91;45.06
61324;BME280;47203;48.428;11.974;2022-07-21T05:01:44;97178.44;;;25.94;45.24
61324;BME280;47203;48.428;11.974;2022-07-21T05:03:49;97171.66;;;26.01;45.16
61324;BME280;47203;48.428;11.974;2022-07-21T05:05:54;97176.00;;;26.05;45.60
61324;BME280;47203;48.428;11.974;2022-07-21T05:08:00;97177.31;;;26.15;45.02
61324;BME280;47203;48.428;11.974;2022-07-21T05:10:06;97167.41;;;26.19;45.60
61324;BME280;47203;48.428;11.974;2022-07-21T05:12:12;97179.13;;;26.27;45.26
61324;BME280;47203;48.428;11.974;2022-07-21T05:14:17;97184.63;;;26.34;45.52
61324;BME280;47203;48.428;11.974;2022-07-21T05:16:23;97184.72;;;26.38;45.74
61324;BME280;47203;48.428;11.974;2022-07-21T05:18:32;97186.91;;;26.32;46.54
61324;BME280;47203;48.428;11.974;2022-07-21T05:20:38;97194.66;;;26.34;46.54
61324;BME280;47203;48.428;11.974;2022-07-21T05:22:43;97200.06;;;26.34;46.55
61324;BME280;47203;48.428;11.974;2022-07-21T05:24:48;97197.44;;;26.37;46.70
61324;BME280;47203;48.428;11.974;2022-07-21T05:26:53;97194.78;;;26.41;46.63
61324;BME280;47203;48.428;11.974;2022-07-21T05:28:59;97200.59;;;26.43;46.49
61324;BME280;47203;48.428;11.974;2022-07-21T05:31:05;97198.34;;;26.45;46.32
61324;BME280;47203;48.428;11.974;2022-07-21T05:33:10;97211.19;;;26.52;46.31
61324;BME280;47203;48.428;11.974;2022-07-21T05:35:18;97213.19;;;26.55;46.46
61324;BME280;47203;48.428;11.974;2022-07-21T05:37:24;97211.75;;;26.61;45.86
61324;BME280;47203;48.428;11.974;2022-07-21T05:39:29;97208.34;;;26.64;46.21
61324;BME280;47203;48.428;11.974;2022-07-21T05:41:35;97204.50;;;26.65;46.13
61324;BME280;47203;48.428;11.974;2022-07-21T05:43:40;97209.53;;;26.67;45.97
61324;BME280;47203;48.428;11.974;2022-07-21T05:45:45;97207.63;;;26.67;45.93
61324;BME280;47203;48.428;11.974;2022-07-21T05:47:56;97208.06;;;26.69;45.93
61324;BME280;47203;48.428;11.974;2022-07-21T05:50:02;97208.06;;;26.69;46.23
61324;BME280;47203;48.428;11.974;2022-07-21T05:52:10;97214.25;;;26.70;45.97
61324;BME280;47203;48.428;11.974;2022-07-21T05:54:15;97225.53;;;26.75;46.11
61324;BME280;47203;48.428;11.974;2022-07-21T05:56:21;97230.94;;;26.75;45.90
61324;BME280;47203;48.428;11.974;2022-07-21T05:58:26;97232.47;;;26.76;46.25
61324;BME280;47203;48.428;11.974;2022-07-21T06:00:31;97237.16;;;26.79;46.34
61324;BME280;47203;48.428;11.974;2022-07-21T06:02:37;97243.72;;;26.78;45.85
61324;BME280;47203;48.428;11.974;2022-07-21T06:04:42;97237.84;;;26.73;46.33
61324;BME280;47203;48.428;11.974;2022-07-21T06:06:48;97239.31;;;26.70;46.22
61324;BME280;47203;48.428;11.974;2022-07-21T06:08:57;97242.72;;;26.67;46.14
61324;BME280;47203;48.428;11.974;2022-07-21T06:11:02;97241.25;;;26.70;46.17
61324;BME280;47203;48.428;11.974;2022-07-21T06:13:08;97240.88;;;26.71;46.15
61324;BME280;47203;48.428;11.974;2022-07-21T06:15:13;97244.63;;;26.67;46.59
61324;BME280;47203;48.428;11.974;2022-07-21T06:17:19;97240.38;;;26.65;46.38
61324;BME280;47203;48.428;11.974;2022-07-21T06:19:24;97238.81;;;26.64;46.38
61324;BME280;47203;48.428;11.974;2022-07-21T06:21:33;97241.00;;;26.59;46.40
61324;BME280;47203;48.428;11.974;2022-07-21T06:23:47;97247.19;;;26.59;46.79
61324;BME280;47203;48.428;11.974;2022-07-21T06:25:56;97249.53;;;26.61;46.62
61324;BME280;47203;48.428;11.974;2022-07-21T06:28:03;97252.75;;;26.67;46.41
61324;BME280;47203;48.428;11.974;2022-07-21T06:30:10;97247.41;;;26.70;46.59
61324;BME280;47203;48.428;11.974;2022-07-21T06:32:19;97251.75;;;26.75;46.39
61324;BME280;47203;48.428;11.974;2022-07-21T06:34:24;97252.91;;;26.74;46.28
61324;BME280;47203;48.428;11.974;2022-07-21T06:36:30;97256.72;;;26.73;46.46
61324;BME280;47203;48.428;11.974;2022-07-21T06:38:36;97255.59;;;26.74;46.35
61324;BME280;47203;48.428;11.974;2022-07-21T06:40:41;97267.53;;;26.73;46.44
61324;BME280;47203;48.428;11.974;2022-07-21T06:42:50;97262.13;;;26.73;46.82
61324;BME280;47203;48.428;11.974;2022-07-21T06:45:15;97262.25;;;26.80;46.18
61324;BME280;47203;48.428;11.974;2022-07-21T06:47:21;97269.41;;;26.92;46.56
61324;BME280;47203;48.428;11.974;2022-07-21T06:49:27;97269.19;;;27.00;46.01
61324;BME280;47203;48.428;11.974;2022-07-21T06:51:35;97268.88;;;27.06;46.12
61324;BME280;47203;48.428;11.974;2022-07-21T06:53:41;97272.91;;;27.15;45.81
61324;BME280;47203;48.428;11.974;2022-07-21T06:55:47;97274.16;;;27.22;46.15
61324;BME280;47203;48.428;11.974;2022-07-21T06:58:16;97275.38;;;27.24;45.96
61324;BME280;47203;48.428;11.974;2022-07-21T07:00:22;97283.59;;;27.31;45.78
61324;BME280;47203;48.428;11.974;2022-07-21T07:02:27;97288.31;;;27.34;45.74
61324;BME280;47203;48.428;11.974;2022-07-21T07:04:33;97290.16;;;27.30;45.64
61324;BME280;47203;48.428;11.974;2022-07-21T07:06:39;97292.09;;;27.30;45.71
61324;BME280;47203;48.428;11.974;2022-07-21T07:08:45;97296.00;;;27.32;45.36
61324;BME280;47203;48.428;11.974;2022-07-21T07:10:51;97309.50;;;27.32;45.51
61324;BME280;47203;48.428;11.974;2022-07-21T07:12:57;97312.97;;;27.33;45.34
61324;BME280;47203;48.428;11.974;2022-07-21T07:15:25;97315.34;;;27.34;45.31
61324;BME280;47203;48.428;11.974;2022-07-21T07:17:30;97315.06;;;27.40;45.44
61324;BME280;47203;48.428;11.974;2022-07-21T07:19:35;97314.69;;;27.41;45.26
61324;BME280;47203;48.428;11.974;2022-07-21T07:21:41;97305.03;;;27.40;44.98
61324;BME280;47203;48.428;11.974;2022-07-21T07:23:47;97312.00;;;27.41;45.49
61324;BME280;47203;48.428;11.974;2022-07-21T07:25:52;97309.34;;;27.45;45.24
61324;BME280;47203;48.428;11.974;2022-07-21T07:27:58;97315.53;;;27.45;45.42
61324;BME280;47203;48.428;11.974;2022-07-21T07:30:07;97308.97;;;27.46;45.12
61324;BME280;47203;48.428;11.974;2022-07-21T07:32:15;97314.81;;;27.48;45.17
61324;BME280;47203;48.428;11.974;2022-07-21T07:34:20;97308.31;;;27.53;45.37
61324;BME280;47203;48.428;11.974;2022-07-21T07:36:27;97310.25;;;27.52;45.27
61324;BME280;47203;48.428;11.974;2022-07-21T07:38:33;97309.16;;;27.57;45.32
61324;BME280;47203;48.428;11.974;2022-07-21T07:40:38;97311.56;;;27.62;45.18
61324;BME280;47203;48.428;11.974;2022-07-21T07:42:44;97312.03;;;27.68;45.24
61324;BME280;47203;48.428;11.974;2022-07-21T07:44:49;97318.66;;;27.71;45.05
61324;BME280;47203;48.428;11.974;2022-07-21T07:46:55;97315.22;;;27.74;45.19
61324;BME280;47203;48.428;11.974;2022-07-21T07:49:03;97312.56;;;27.77;45.27
61324;BME280;47203;48.428;11.974;2022-07-21T07:51:20;97308.09;;;27.89;45.23
61324;BME280;47203;48.428;11.974;2022-07-21T07:53:26;97305.22;;;28.01;44.92
61324;BME280;47203;48.428;11.974;2022-07-21T07:55:31;97297.56;;;28.07;45.00
61324;BME280;47203;48.428;11.974;2022-07-21T07:57:37;97313.47;;;28.12;44.69
61324;BME280;47203;48.428;11.974;2022-07-21T07:59:43;97303.88;;;28.18;44.35
61324;BME280;47203;48.428;11.974;2022-07-21T08:01:48;97312.44;;;28.20;44.46
61324;BME280;47203;48.428;11.974;2022-07-21T08:03:53;97310.56;;;28.24;44.52
61324;BME280;47203;48.428;11.974;2022-07-21T08:06:03;97306.22;;;28.19;44.11
61324;BME280;47203;48.428;11.974;2022-07-21T08:08:09;97303.16;;;28.21;44.58
61324;BME280;47203;48.428;11.974;2022-07-21T08:10:14;97311.69;;;28.23;44.39
61324;BME280;47203;48.428;11.974;2022-07-21T08:12:40;97309.38;;;28.21;44.03
61324;BME280;47203;48.428;11.974;2022-07-21T08:14:46;97305.09;;;28.20;44.40
61324;BME280;47203;48.428;11.974;2022-07-21T08:16:51;97308.25;;;28.26;44.58
61324;BME280;47203;48.428;11.974;2022-07-21T08:18:56;97313.34;;;28.31;44.02
61324;BME280;47203;48.428;11.974;2022-07-21T08:21:05;97310.69;;;28.35;44.36
61324;BME280;47203;48.428;11.974;2022-07-21T08:23:11;97309.66;;;28.43;44.35
61324;BME280;47203;48.428;11.974;2022-07-21T08:25:18;97302.75;;;28.49;43.87
61324;BME280;47203;48.428;11.974;2022-07-21T08:27:24;97304.38;;;28.58;43.75
61324;BME280;47203;48.428;11.974;2022-07-21T08:29:29;97312.22;;;28.63;43.73
61324;BME280;47203;48.428;11.974;2022-07-21T08:31:34;97310.00;;;28.72;43.52
61324;BME280;47203;48.428;11.974;2022-07-21T08:33:39;97317.47;;;28.82;43.67
61324;BME280;47203;48.428;11.974;2022-07-21T08:35:45;97318.75;;;28.92;43.72
61324;BME280;47203;48.428;11.974;2022-07-21T08:37:58;97312.25;;;29.00;43.39
61324;BME280;47203;48.428;11.974;2022-07-21T08:40:05;97319.78;;;29.18;43.36
61324;BME280;47203;48.428;11.974;2022-07-21T08:42:12;97317.19;;;29.29;43.14
61324;BME280;47203;48.428;11.974;2022-07-21T08:44:17;97325.06;;;29.41;43.03
61324;BME280;47203;48.428;11.974;2022-07-21T08:46:25;97319.66;;;29.45;43.07
61324;BME280;47203;48.428;11.974;2022-07-21T08:48:31;97312.34;;;29.49;42.96
61324;BME280;47203;48.428;11.974;2022-07-21T08:50:39;97318.59;;;29.56;42.89
61324;BME280;47203;48.428;11.974;2022-07-21T08:52:44;97316.34;;;29.66;42.38
61324;BME280;47203;48.428;11.974;2022-07-21T08:54:53;97322.19;;;29.68;41.91
61324;BME280;47203;48.428;11.974;2022-07-21T08:56:58;97324.91;;;29.68;42.27
61324;BME280;47203;48.428;11.974;2022-07-21T08:59:05;97316.75;;;29.68;41.92
61324;BME280;47203;48.428;11.974;2022-07-21T09:01:10;97326.09;;;29.70;42.26
61324;BME280;47203;48.428;11.974;2022-07-21T09:03:19;97319.09;;;29.73;42.02
61324;BME280;47203;48.428;11.974;2022-07-21T09:05:24;97318.00;;;29.77;42.05
61324;BME280;47203;48.428;11.974;2022-07-21T09:07:46;97323.03;;;29.79;42.45
61324;BME280;47203;48.428;11.974;2022-07-21T09:10:01;97322.72;;;29.84;42.02
61324;BME280;47203;48.428;11.974;2022-07-21T09:12:08;97326.66;;;29.94;42.05
61324;BME280;47203;48.428;11.974;2022-07-21T09:14:16;97329.38;;;29.94;41.40
61324;BME280;47203;48.428;11.974;2022-07-21T09:16:36;97321.94;;;29.84;41.73
61324;BME280;47203;48.428;11.974;2022-07-21T09:18:50;97323.09;;;29.83;41.81
61324;BME280;47203;48.428;11.974;2022-07-21T09:20:56;97332.81;;;29.87;41.66
61324;BME280;47203;48.428;11.974;2022-07-21T09:23:07;97323.13;;;29.90;41.55
61324;BME280;47203;48.428;11.974;2022-07-21T09:25:34;97325.47;;;29.91;41.78
61324;BME280;47203;48.428;11.974;2022-07-21T09:27:40;97323.59;;;29.99;41.71
61324;BME280;47203;48.428;11.974;2022-07-21T09:29:49;97327.09;;;30.00;41.45
61324;BME280;47203;48.428;11.974;2022-07-21T09:31:54;97329.81;;;30.03;41.19
61324;BME280;47203;48.428;11.974;2022-07-21T09:34:02;97333.69;;;30.02;41.24
61324;BME280;47203;48.428;11.974;2022-07-21T09:36:19;97335.94;;;29.93;41.26
61324;BME280;47203;48.428;11.974;2022-07-21T09:38:25;97332.84;;;29.91;41.46
61324;BME280;47203;48.428;11.974;2022-07-21T09:40:46;97335.13;;;29.85;41.67
61324;BME280;47203;48.428;11.974;2022-07-21T09:42:52;97332.06;;;29.90;41.04
61324;BME280;47203;48.428;11.974;2022-07-21T09:44:59;97328.56;;;29.90;41.13
61324;BME280;47203;48.428;11.974;2022-07-21T09:47:11;97331.66;;;29.92;40.86
61324;BME280;47203;48.428;11.974;2022-07-21T09:49:31;97339.47;;;29.93;41.04
61324;BME280;47203;48.428;11.974;2022-07-21T09:51:57;97337.56;;;30.05;40.95
61324;BME280;47203;48.428;11.974;2022-07-21T09:54:07;97336.06;;;30.07;40.85
61324;BME280;47203;48.428;11.974;2022-07-21T09:56:17;97330.63;;;30.07;41.07
61324;BME280;47203;48.428;11.974;2022-07-21T09:58:22;97339.53;;;30.08;40.83
61324;BME280;47203;48.428;11.974;2022-07-21T10:00:29;97347.28;;;30.09;40.53
61324;BME280;47203;48.428;11.974;2022-07-21T10:02:35;97338.00;;;30.10;40.63
61324;BME280;47203;48.428;11.974;2022-07-21T10:04:42;97333.00;;;30.20;41.05
61324;BME280;47203;48.428;11.974;2022-07-21T10:07:09;97338.94;;;30.40;40.62
61324;BME280;47203;48.428;11.974;2022-07-21T10:09:16;97330.50;;;30.56;40.40
61324;BME280;47203;48.428;11.974;2022-07-21T10:11:26;97334.81;;;30.64;40.63
61324;BME280;47203;48.428;11.974;2022-07-21T10:13:32;97330.59;;;30.74;40.20
61324;BME280;47203;48.428;11.974;2022-07-21T10:15:39;97330.59;;;30.81;39.57
61324;BME280;47203;48.428;11.974;2022-07-21T10:17:46;97328.28;;;30.83;39.52
61324;BME280;47203;48.428;11.974;2022-07-21T10:20:04;97331.00;;;30.83;39.79
61324;BME280;47203;48.428;11.974;2022-07-21T10:22:24;97329.06;;;30.80;39.48
61324;BME280;47203;48.428;11.974;2022-07-21T10:24:31;97334.50;;;30.80;39.34
61324;BME280;47203;48.428;11.974;2022-07-21T10:26:59;97326.66;;;30.60;39.79
61324;BME280;47203;48.428;11.974;2022-07-21T10:29:04;97335.19;;;30.55;39.52
61324;BME280;47203;48.428;11.974;2022-07-21T10:31:17;97332.75;;;30.39;39.53
61324;BME280;47203;48.428;11.974;2022-07-21T10:33:56;97335.72;;;30.20;39.67
61324;BME280;47203;48.428;11.974;2022-07-21T10:36:03;97333.00;;;30.20;40.24
61324;BME280;47203;48.428;11.974;2022-07-21T10:38:26;97340.75;;;30.14;40.25
61324;BME280;47203;48.428;11.974;2022-07-21T10:40:40;97350.81;;;30.10;40.18
61324;BME280;47203;48.428;11.974;2022-07-21T10:45:52;97347.19;;;29.91;40.21
61324;BME280;47203;48.428;11.974;2022-07-21T10:47:59;97348.69;;;29.85;40.54
61324;BME280;47203;48.428;11.974;2022-07-21T10:50:05;97347.13;;;29.84;40.64
61324;BME280;47203;48.428;11.974;2022-07-21T10:52:56;97348.94;;;29.73;40.46
61324;BME280;47203;48.428;11.974;2022-07-21T10:55:15;97347.78;;;29.74;40.79
61324;BME280;47203;48.428;11.974;2022-07-21T10:57:27;97347.47;;;29.79;40.51
61324;BME280;47203;48.428;11.974;2022-07-21T11:00:19;97343.13;;;29.71;40.70
61324;BME280;47203;48.428;11.974;2022-07-21T11:02:28;97355.13;;;29.70;40.42
61324;BME280;47203;48.428;11.974;2022-07-21T11:05:06;97346.50;;;29.57;40.85
61324;BME280;47203;48.428;11.974;2022-07-21T11:07:11;97341.41;;;29.52;40.71
61324;BME280;47203;48.428;11.974;2022-07-21T11:09:18;97346.38;;;29.42;40.96
61324;BME280;47203;48.428;11.974;2022-07-21T11:11:27;97345.91;;;29.33;41.00